la Seu d'Urgell, Spain
Current Conditions -  °F | °C
As of 7:30 AM on Saturday 20 Dec 2014 (Local Time) from LFMK Reporting Station
Broken Clouds Broken Clouds  
Wind Chill: 43°   Ceiling: 3200
Heat Index: 48°   Visibility: 6mi
Dew Point: 43°   Wind: 12mph
Humidity: 82%   Direction: 280°W
Pressure: 30.45"   Gusts: NA
Location:  42.36°N, 1.46°E
Report Text: LFMK 200630Z AUTO 28010KT 9999 BKN032 BKN038 09/06 Q1031
Loading
Personal Weather Stations






























Interactive Weather Map New forecast layout! Learn more

10-Day Weather Forecast

Advertisements
Track Severe Weather on mobile